createdAt,value
2018-03-08T00:02:13.469Z,2.70
2018-03-08T00:04:40.977Z,2.40
2018-03-08T00:07:08.474Z,2.10
2018-03-08T00:09:36.003Z,2.40
2018-03-08T00:12:03.473Z,2.33
2018-03-08T00:14:30.938Z,2.57
2018-03-08T00:16:58.462Z,1.83
2018-03-08T00:19:26.733Z,2.60
2018-03-08T00:21:54.244Z,2.30
2018-03-08T00:24:22.059Z,2.90
2018-03-08T00:26:49.566Z,2.80
2018-03-08T00:29:17.040Z,2.20
2018-03-08T00:31:44.651Z,2.90
2018-03-08T00:34:13.675Z,2.10
2018-03-08T00:36:41.943Z,2.63
2018-03-08T00:39:10.248Z,2.10
2018-03-08T00:41:37.719Z,3.20
2018-03-08T00:44:05.186Z,2.40
2018-03-08T00:46:32.841Z,2.87
2018-03-08T00:49:00.302Z,2.23
2018-03-08T00:51:28.055Z,2.40
2018-03-08T00:53:56.351Z,1.83
2018-03-08T00:56:23.912Z,2.30
2018-03-08T00:58:51.380Z,2.20
2018-03-08T01:01:18.871Z,2.13
2018-03-08T01:03:46.334Z,2.00
2018-03-08T01:06:13.827Z,2.23
2018-03-08T01:08:41.490Z,2.30
2018-03-08T01:11:08.954Z,2.40
2018-03-08T01:13:36.454Z,2.60
2018-03-08T01:16:04.120Z,2.30
2018-03-08T01:18:31.587Z,2.50
2018-03-08T01:20:59.053Z,2.20
2018-03-08T01:23:26.681Z,2.70
2018-03-08T01:25:54.955Z,1.80
2018-03-08T01:28:22.448Z,2.60
2018-03-08T01:30:50.178Z,2.30
2018-03-08T01:33:18.405Z,2.57
2018-03-08T01:35:45.960Z,2.90
2018-03-08T01:38:13.699Z,2.53
2018-03-08T01:40:41.971Z,2.57
2018-03-08T01:43:09.439Z,2.67
2018-03-08T01:45:37.101Z,2.87
2018-03-08T01:48:04.603Z,2.73
2018-03-08T01:50:32.819Z,3.13
2018-03-08T01:53:00.647Z,2.73
2018-03-08T01:55:28.114Z,3.33
2018-03-08T01:57:55.611Z,3.27
2018-03-08T02:00:23.127Z,2.30
2018-03-08T02:02:50.591Z,3.20
2018-03-08T02:05:18.056Z,3.10
2018-03-08T02:07:46.482Z,2.60
2018-03-08T02:10:13.938Z,2.73
2018-03-08T02:12:41.439Z,2.10
2018-03-08T02:15:09.951Z,2.50
2018-03-08T02:17:37.459Z,2.70
2018-03-08T02:20:04.956Z,2.10
2018-03-08T02:22:33.235Z,3.30
2018-03-08T02:25:01.503Z,2.47
2018-03-08T02:27:29.007Z,3.20
2018-03-08T02:29:56.486Z,2.53
2018-03-08T02:32:23.997Z,3.10
2018-03-08T02:34:52.237Z,2.27
2018-03-08T02:37:19.779Z,2.80
2018-03-08T02:39:47.285Z,2.03
2018-03-08T02:42:14.755Z,2.70
2018-03-08T02:44:42.426Z,2.90
2018-03-08T02:47:10.034Z,2.17
2018-03-08T02:49:38.271Z,2.63
2018-03-08T02:52:06.532Z,2.00
2018-03-08T02:54:34.401Z,2.83
2018-03-08T02:57:01.865Z,2.70
2018-03-08T02:59:29.478Z,2.10
2018-03-08T03:01:56.948Z,2.80
2018-03-08T03:04:24.504Z,2.70
2018-03-08T03:06:52.270Z,1.83
2018-03-08T03:09:20.535Z,2.60
2018-03-08T03:11:48.807Z,1.87
2018-03-08T03:14:17.098Z,2.30
2018-03-08T03:16:45.335Z,1.80
2018-03-08T03:19:12.798Z,2.40
2018-03-08T03:21:40.485Z,2.20
2018-03-08T03:24:07.991Z,2.07
2018-03-08T03:26:35.499Z,1.70
2018-03-08T03:29:03.028Z,2.30
2018-03-08T03:31:30.495Z,1.70
2018-03-08T03:33:58.003Z,1.90
2018-03-08T03:36:25.877Z,2.07
2018-03-08T03:38:53.391Z,1.93
2018-03-08T03:41:20.858Z,2.30
2018-03-08T03:43:48.387Z,1.67
2018-03-08T03:46:15.934Z,2.27
2018-03-08T03:48:44.164Z,2.10
2018-03-08T03:51:11.796Z,1.90
2018-03-08T03:53:40.055Z,2.47
2018-03-08T03:56:07.711Z,2.43
2018-03-08T03:58:35.209Z,2.30
2018-03-08T04:01:07.688Z,1.93
2018-03-08T04:03:35.178Z,2.10
2018-03-08T04:06:02.920Z,2.40
2018-03-08T04:08:30.386Z,2.10
2018-03-08T04:10:57.855Z,2.33
2018-03-08T04:13:25.612Z,2.30
2018-03-08T04:15:53.113Z,2.40
2018-03-08T04:18:20.607Z,2.50
2018-03-08T04:20:48.131Z,2.57
2018-03-08T04:23:15.594Z,2.20
2018-03-08T04:25:43.060Z,2.40
2018-03-08T04:28:10.585Z,2.30
2018-03-08T04:30:38.048Z,2.43
2018-03-08T04:33:05.555Z,2.43
2018-03-08T04:35:33.071Z,2.30
2018-03-08T04:38:00.563Z,2.00
2018-03-08T04:40:28.023Z,2.47
2018-03-08T04:42:55.506Z,2.30
2018-03-08T04:45:23.015Z,1.80
2018-03-08T04:47:50.519Z,2.60
2018-03-08T04:50:18.054Z,2.20
2018-03-08T04:52:45.568Z,2.10
2018-03-08T04:55:13.081Z,2.30
2018-03-08T04:57:41.044Z,2.00
2018-03-08T05:00:08.510Z,2.70
2018-03-08T05:02:35.979Z,2.30
2018-03-08T05:05:03.480Z,2.70
2018-03-08T05:07:30.942Z,2.30
2018-03-08T05:09:58.410Z,2.00
2018-03-08T05:12:25.959Z,2.50
2018-03-08T05:14:53.458Z,1.80
2018-03-08T05:17:21.736Z,2.40
2018-03-08T05:19:50.186Z,1.90
2018-03-08T05:22:17.662Z,2.30
2018-03-08T05:24:45.165Z,2.43
2018-03-08T05:27:13.562Z,1.90
2018-03-08T05:29:41.061Z,2.30
2018-03-08T05:32:08.574Z,1.90
2018-03-08T05:34:36.876Z,2.37
2018-03-08T05:37:04.383Z,2.43
2018-03-08T05:39:31.888Z,2.50
2018-03-08T05:42:00.362Z,2.27
2018-03-08T05:44:28.598Z,2.23
2018-03-08T05:46:56.100Z,2.40
2018-03-08T05:49:25.209Z,2.70
2018-03-08T05:51:52.780Z,2.33
2018-03-08T05:54:20.261Z,2.40
2018-03-08T05:56:47.948Z,1.87
2018-03-08T05:59:15.865Z,2.43
2018-03-08T06:01:44.157Z,2.50
2018-03-08T06:04:12.823Z,1.93
2018-03-08T06:06:41.088Z,2.63
2018-03-08T06:09:08.592Z,2.40
2018-03-08T06:11:36.333Z,2.40
2018-03-08T06:14:04.620Z,2.20
2018-03-08T06:16:32.892Z,2.20
2018-03-08T06:19:01.474Z,2.20
2018-03-08T06:21:29.740Z,2.30
2018-03-08T06:23:57.239Z,2.30
2018-03-08T06:26:25.819Z,2.70
2018-03-08T06:28:54.051Z,2.50
2018-03-08T06:31:21.560Z,2.50
2018-03-08T06:33:49.818Z,2.50
2018-03-08T06:36:17.320Z,2.40
2018-03-08T06:38:44.785Z,2.70
2018-03-08T06:41:12.447Z,2.57
2018-03-08T06:43:40.681Z,2.63
2018-03-08T06:46:08.147Z,2.90
2018-03-08T06:48:35.680Z,2.83
2018-03-08T06:51:03.146Z,3.60
2018-03-08T06:53:30.652Z,2.60
2018-03-08T06:55:59.155Z,3.73
2018-03-08T06:58:27.435Z,3.53
2018-03-08T07:00:55.727Z,3.23
2018-03-08T07:03:23.466Z,3.20
2018-03-08T07:05:50.942Z,2.80
2018-03-08T07:08:19.176Z,3.03
2018-03-08T07:10:46.758Z,3.07
2018-03-08T07:13:14.226Z,2.80
2018-03-08T07:15:41.737Z,3.53
2018-03-08T07:18:09.286Z,3.47
2018-03-08T07:20:36.801Z,3.47
2018-03-08T07:23:04.262Z,3.13
2018-03-08T07:25:31.755Z,3.80
2018-03-08T07:27:59.983Z,2.80
2018-03-08T07:30:27.496Z,3.43
2018-03-08T07:32:55.742Z,3.40
2018-03-08T07:35:23.209Z,3.57
2018-03-08T07:37:50.673Z,3.40
2018-03-08T07:40:18.168Z,3.17
2018-03-08T07:42:46.396Z,3.40
2018-03-08T07:45:13.873Z,3.20
2018-03-08T07:47:41.549Z,2.67
2018-03-08T07:50:09.058Z,3.33
2018-03-08T07:52:36.522Z,3.07
2018-03-08T07:55:04.312Z,3.33
2018-03-08T07:57:31.775Z,2.77
2018-03-08T07:59:59.279Z,3.30
2018-03-08T08:02:27.758Z,3.37
2018-03-08T08:08:13.126Z,3.00
2018-03-08T08:10:40.594Z,3.00
2018-03-08T08:13:08.062Z,2.60
2018-03-08T08:15:36.434Z,2.70
2018-03-08T08:18:03.906Z,2.60
2018-03-08T08:20:32.130Z,2.73
2018-03-08T08:22:59.622Z,3.17
2018-03-08T08:25:27.124Z,2.57
2018-03-08T08:27:56.343Z,2.40
2018-03-08T08:30:24.107Z,2.10
2018-03-08T08:32:51.603Z,3.10
2018-03-08T08:35:19.071Z,2.43
2018-03-08T08:37:46.563Z,2.93
2018-03-08T08:40:14.068Z,2.40
2018-03-08T08:42:41.538Z,2.47
2018-03-08T08:45:09.183Z,2.37
2018-03-08T08:47:36.683Z,2.27
2018-03-08T08:50:04.188Z,2.60
2018-03-08T08:52:32.466Z,2.90
2018-03-08T08:54:59.972Z,3.07
2018-03-08T08:57:27.433Z,2.33
2018-03-08T08:59:54.928Z,2.27
2018-03-08T09:02:22.444Z,2.03
2018-03-08T09:04:49.948Z,2.23
2018-03-08T09:07:17.475Z,2.30
2018-03-08T09:09:44.942Z,2.07
2018-03-08T09:12:12.398Z,2.07
2018-03-08T09:14:40.109Z,1.80
2018-03-08T09:17:07.616Z,2.00
2018-03-08T09:19:35.114Z,1.80
2018-03-08T09:22:02.607Z,2.00
2018-03-08T09:24:30.111Z,1.60
2018-03-08T09:26:57.612Z,1.70
2018-03-08T09:29:25.102Z,1.80
2018-03-08T09:31:53.368Z,1.90
2018-03-08T09:34:20.883Z,1.50
2018-03-08T09:36:48.396Z,2.27
2018-03-08T09:39:15.861Z,1.60
2018-03-08T09:41:43.365Z,2.10
2018-03-08T09:44:10.896Z,2.30
2018-03-08T09:46:38.493Z,1.67
2018-03-08T09:49:05.945Z,1.90
2018-03-08T09:51:33.468Z,1.80
2018-03-08T09:54:00.971Z,1.90
2018-03-08T09:56:29.198Z,1.70
2018-03-08T09:58:57.051Z,2.40
2018-03-08T10:01:25.126Z,2.20
2018-03-08T10:03:52.592Z,1.60
2018-03-08T10:06:20.411Z,2.13
2018-03-08T10:08:48.682Z,1.90
2018-03-08T10:11:16.150Z,2.40
2018-03-08T10:13:43.975Z,2.10
2018-03-08T10:16:11.484Z,2.10
2018-03-08T10:18:38.950Z,1.90
2018-03-08T10:21:07.322Z,2.10
2018-03-08T10:23:34.790Z,1.70
2018-03-08T10:26:02.299Z,2.03
2018-03-08T10:28:29.823Z,1.83
2018-03-08T10:30:58.060Z,2.40
2018-03-08T10:33:25.534Z,1.80
2018-03-08T10:35:53.255Z,1.70
2018-03-08T10:38:20.718Z,1.43
2018-03-08T10:40:48.195Z,1.70
2018-03-08T10:43:15.798Z,1.70
2018-03-08T10:45:43.263Z,1.70
2018-03-08T10:48:10.733Z,1.80
2018-03-08T10:50:38.227Z,1.40
2018-03-08T10:53:05.797Z,1.67
2018-03-08T10:55:33.270Z,1.60
2018-03-08T10:58:00.787Z,1.40
2018-03-08T11:00:34.758Z,1.40
2018-03-08T11:03:06.981Z,1.50
2018-03-08T11:05:40.007Z,1.60
2018-03-08T11:08:07.852Z,1.63
2018-03-08T11:10:35.317Z,1.70
2018-03-08T11:13:02.823Z,1.43
2018-03-08T11:15:30.753Z,1.27
2018-03-08T11:17:58.314Z,1.37
2018-03-08T11:20:25.774Z,1.30
2018-03-08T11:22:53.254Z,1.40
2018-03-08T11:25:20.751Z,1.40
2018-03-08T11:27:48.214Z,1.73
2018-03-08T11:30:15.867Z,1.47
2018-03-08T11:32:43.334Z,1.77
2018-03-08T11:35:10.827Z,1.37
2018-03-08T11:37:39.084Z,1.50
2018-03-08T11:40:06.547Z,1.70
2018-03-08T11:42:34.052Z,1.53
2018-03-08T11:45:02.401Z,1.43
2018-03-08T11:47:29.911Z,1.70
2018-03-08T11:49:57.469Z,1.30
2018-03-08T11:52:25.863Z,1.60
2018-03-08T11:54:53.440Z,1.53
2018-03-08T11:57:20.936Z,1.63
2018-03-08T11:59:48.562Z,1.50
2018-03-08T12:02:16.063Z,1.60
2018-03-08T12:04:43.573Z,1.70
2018-03-08T12:07:11.302Z,1.23
2018-03-08T12:09:38.808Z,1.50
2018-03-08T12:12:06.312Z,1.60
2018-03-08T12:14:33.826Z,1.53
2018-03-08T12:17:01.451Z,1.30
2018-03-08T12:19:28.882Z,1.53
2018-03-08T12:21:56.408Z,1.40
2018-03-08T12:24:23.907Z,1.30
2018-03-08T12:26:51.411Z,1.60
2018-03-08T12:29:19.079Z,1.20
2018-03-08T12:31:47.355Z,1.40
2018-03-08T12:34:14.823Z,1.10
2018-03-08T12:36:43.288Z,1.30
2018-03-08T12:39:10.800Z,1.53
2018-03-08T12:41:38.298Z,1.50
2018-03-08T12:44:05.794Z,1.57
2018-03-08T12:46:34.035Z,1.50
2018-03-08T12:49:01.569Z,1.30
2018-03-08T12:51:29.435Z,1.30
2018-03-08T12:53:56.911Z,1.20
2018-03-08T12:56:24.386Z,1.50
2018-03-08T12:58:52.090Z,1.20
2018-03-08T13:01:19.558Z,1.40
2018-03-08T13:03:47.216Z,1.53
2018-03-08T13:06:14.919Z,1.57
2018-03-08T13:08:42.403Z,1.40
2018-03-08T13:11:09.903Z,1.70
2018-03-08T13:13:37.604Z,1.40
2018-03-08T13:16:05.872Z,1.43
2018-03-08T13:18:34.155Z,1.43
2018-03-08T13:21:02.518Z,1.63
2018-03-08T13:23:30.024Z,1.50
2018-03-08T13:25:57.500Z,1.40
2018-03-08T13:28:25.030Z,1.43
2018-03-08T13:30:53.268Z,1.50
2018-03-08T13:33:20.742Z,1.70
2018-03-08T13:35:48.273Z,1.50
2018-03-08T13:38:15.783Z,1.40
2018-03-08T13:40:43.246Z,1.30
2018-03-08T13:43:11.623Z,1.93
2018-03-08T13:45:39.139Z,1.57
2018-03-08T13:48:06.659Z,1.23
2018-03-08T13:50:34.956Z,1.50
2018-03-08T13:53:02.459Z,1.10
2018-03-08T13:55:29.956Z,1.50
2018-03-08T13:57:57.439Z,1.10
2018-03-08T14:00:25.753Z,1.30
2018-03-08T14:02:53.227Z,1.30
2018-03-08T14:05:20.726Z,1.30
2018-03-08T14:07:48.959Z,1.03
2018-03-08T14:10:16.463Z,1.50
2018-03-08T14:12:44.858Z,1.20
2018-03-08T14:15:13.095Z,1.40
2018-03-08T14:17:40.582Z,1.20
2018-03-08T14:20:08.075Z,1.20
2018-03-08T14:22:35.546Z,1.20
2018-03-08T14:25:03.798Z,1.20
2018-03-08T14:27:32.218Z,1.07
2018-03-08T14:30:00.760Z,1.20
2018-03-08T14:32:29.020Z,1.20
2018-03-08T14:34:56.955Z,1.10
2018-03-08T14:37:24.573Z,1.30
2018-03-08T14:39:52.852Z,1.67
2018-03-08T14:42:20.335Z,1.43
2018-03-08T14:44:48.571Z,1.40
2018-03-08T14:47:16.079Z,1.70
2018-03-08T14:49:44.550Z,1.40
2018-03-08T14:52:12.019Z,1.33
2018-03-08T14:54:40.254Z,1.30
2018-03-08T14:57:07.963Z,1.70
2018-03-08T14:59:36.199Z,2.13
2018-03-08T15:02:03.667Z,2.60
2018-03-08T15:04:31.396Z,1.97
2018-03-08T15:06:59.030Z,1.90
2018-03-08T15:09:26.543Z,1.50
2018-03-08T15:11:54.154Z,1.70
2018-03-08T15:14:21.625Z,1.80
2018-03-08T15:16:49.899Z,1.40
2018-03-08T15:19:18.216Z,1.20
2018-03-08T15:21:45.699Z,1.40
2018-03-08T15:24:13.208Z,1.43
2018-03-08T15:26:41.474Z,1.27
2018-03-08T15:29:09.034Z,1.30
2018-03-08T15:31:36.648Z,1.23
2018-03-08T15:34:04.142Z,1.40
2018-03-08T15:36:31.677Z,1.40
2018-03-08T15:38:59.179Z,1.50
2018-03-08T15:41:26.707Z,1.30
2018-03-08T15:43:54.178Z,1.40
2018-03-08T15:46:21.679Z,1.57
2018-03-08T15:48:49.162Z,1.50
2018-03-08T15:51:17.423Z,1.77
2018-03-08T15:53:44.890Z,1.70
2018-03-08T15:56:12.431Z,1.60
2018-03-08T15:58:40.071Z,1.50
2018-03-08T16:01:07.575Z,1.77
2018-03-08T16:03:35.066Z,1.63
2018-03-08T16:06:03.335Z,1.50
2018-03-08T16:08:42.701Z,1.57
2018-03-08T16:11:10.260Z,1.77
2018-03-08T16:13:37.747Z,1.30
2018-03-08T16:16:05.235Z,1.60
2018-03-08T16:18:32.753Z,1.57
2018-03-08T16:21:00.222Z,1.47
2018-03-08T16:23:27.980Z,1.57
2018-03-08T16:25:55.498Z,1.60
2018-03-08T16:28:22.969Z,1.80
2018-03-08T16:30:51.242Z,1.50
2018-03-08T16:33:18.756Z,1.53
2018-03-08T16:35:46.234Z,1.50
2018-03-08T16:38:13.938Z,1.70
2018-03-08T16:40:41.443Z,1.67
2018-03-08T16:43:08.907Z,2.17
2018-03-08T16:45:36.547Z,1.80
2018-03-08T16:48:04.782Z,1.87
2018-03-08T16:50:32.246Z,2.27
2018-03-08T16:52:59.923Z,2.10
2018-03-08T16:55:27.392Z,1.70
2018-03-08T16:57:54.862Z,1.90
2018-03-08T17:00:22.391Z,1.50
2018-03-08T17:02:49.850Z,1.70
2018-03-08T17:05:17.351Z,1.80
2018-03-08T17:07:45.669Z,1.73
2018-03-08T17:10:13.188Z,1.80
2018-03-08T17:12:40.687Z,1.70
2018-03-08T17:15:08.200Z,1.37
2018-03-08T17:17:35.664Z,1.60
2018-03-08T17:20:03.172Z,1.93
2018-03-08T17:22:31.647Z,2.60
2018-03-08T17:24:59.109Z,2.77
2018-03-08T17:27:27.330Z,2.30
2018-03-08T17:29:54.868Z,2.90
2018-03-08T17:32:22.334Z,4.57
2018-03-08T17:34:49.835Z,3.80
2018-03-08T17:37:17.358Z,2.80
2018-03-08T17:39:44.821Z,3.53
2018-03-08T17:42:12.336Z,3.73
2018-03-08T17:44:40.209Z,2.97
2018-03-08T17:47:07.711Z,2.10
2018-03-08T17:49:35.211Z,2.73
2018-03-08T17:52:02.907Z,2.70
2018-03-08T17:54:30.426Z,2.03
2018-03-08T17:56:58.614Z,2.60
2018-03-08T17:59:26.144Z,2.40
2018-03-08T18:01:53.640Z,2.20
2018-03-08T18:04:21.148Z,3.17
2018-03-08T18:06:49.562Z,3.03
2018-03-08T18:09:17.798Z,3.50
2018-03-08T18:11:45.258Z,3.03
2018-03-08T18:14:12.925Z,4.10
2018-03-08T18:16:40.391Z,3.90
2018-03-08T18:19:07.918Z,3.70
2018-03-08T18:21:35.415Z,4.93
2018-03-08T18:24:02.874Z,4.63
2018-03-08T18:26:30.385Z,3.03
2018-03-08T18:28:58.037Z,3.40
2018-03-08T18:31:25.560Z,2.80
2018-03-08T18:33:53.028Z,3.10
2018-03-08T18:36:20.832Z,2.20
2018-03-08T18:38:48.354Z,2.90
2018-03-08T18:41:16.610Z,2.47
2018-03-08T18:43:44.267Z,2.70
2018-03-08T18:46:11.763Z,2.63
2018-03-08T18:48:39.248Z,2.90
2018-03-08T18:51:07.832Z,2.60
2018-03-08T18:53:36.061Z,2.70
2018-03-08T18:56:03.567Z,2.70
2018-03-08T18:58:31.054Z,2.90
2018-03-08T19:00:58.590Z,2.70
2018-03-08T19:03:26.191Z,3.10
2018-03-08T19:05:53.968Z,3.57
2018-03-08T19:08:21.564Z,2.90
2018-03-08T19:10:49.019Z,3.93
2018-03-08T19:13:16.545Z,3.50
2018-03-08T19:15:44.066Z,3.37
2018-03-08T19:18:11.530Z,3.13
2018-03-08T19:20:39.248Z,4.43
2018-03-08T19:23:06.747Z,3.40
2018-03-08T19:25:34.214Z,2.93
2018-03-08T19:28:02.069Z,3.40
2018-03-08T19:30:29.563Z,3.60
2018-03-08T19:32:57.038Z,3.27
2018-03-08T19:35:25.623Z,3.13
2018-03-08T19:37:53.889Z,3.20
2018-03-08T19:40:21.396Z,3.10
2018-03-08T19:42:49.172Z,3.00
2018-03-08T19:45:16.638Z,2.80
2018-03-08T19:47:44.104Z,2.97
2018-03-08T19:50:11.632Z,3.17
2018-03-08T19:52:39.162Z,2.73
2018-03-08T19:55:06.681Z,2.67
2018-03-08T19:57:34.196Z,2.70
2018-03-08T20:00:01.660Z,3.07
2018-03-08T20:02:29.131Z,2.70
2018-03-08T20:04:57.534Z,2.60
2018-03-08T20:07:25.040Z,2.50
2018-03-08T20:09:52.544Z,2.80
2018-03-08T20:12:21.067Z,2.17
2018-03-08T20:14:48.540Z,2.63
2018-03-08T20:17:16.149Z,2.10
2018-03-08T20:19:43.864Z,2.50
2018-03-08T20:22:11.386Z,2.10
2018-03-08T20:24:39.614Z,2.40
2018-03-08T20:27:07.442Z,1.90
2018-03-08T20:29:35.736Z,2.80
2018-03-08T20:32:03.240Z,2.30
2018-03-08T20:34:31.074Z,2.30
2018-03-08T20:36:58.542Z,2.40
2018-03-08T20:39:26.008Z,2.40
2018-03-08T20:41:53.537Z,2.00
2018-03-08T20:44:22.817Z,2.50
2018-03-08T20:46:50.287Z,2.10
2018-03-08T20:49:17.999Z,2.33
2018-03-08T20:51:45.470Z,2.13
2018-03-08T20:54:12.975Z,2.50
2018-03-08T20:56:40.500Z,2.50
2018-03-08T20:59:07.966Z,2.17
2018-03-08T21:01:35.479Z,2.13
2018-03-08T21:04:03.990Z,2.00
2018-03-08T21:06:31.465Z,2.37
2018-03-08T21:08:58.971Z,2.00
2018-03-08T21:11:26.891Z,2.30
2018-03-08T21:13:54.372Z,1.67
2018-03-08T21:16:21.914Z,2.10
2018-03-08T21:18:49.547Z,1.97
2018-03-08T21:21:17.056Z,1.80
2018-03-08T21:23:44.561Z,1.60
2018-03-08T21:26:12.254Z,1.97
2018-03-08T21:28:40.515Z,2.00
2018-03-08T21:31:08.002Z,2.00
2018-03-08T21:33:36.578Z,2.00
2018-03-08T21:36:04.851Z,1.97
2018-03-08T21:38:32.351Z,2.03
2018-03-08T21:41:00.075Z,2.00
2018-03-08T21:43:27.538Z,1.90
2018-03-08T21:45:55.811Z,1.97
2018-03-08T21:48:23.315Z,1.90
2018-03-08T21:50:50.790Z,2.00
2018-03-08T21:53:18.258Z,1.70
2018-03-08T21:55:45.758Z,1.57
2018-03-08T21:58:13.259Z,2.00
2018-03-08T22:00:40.728Z,1.80
2018-03-08T22:03:08.544Z,1.77
2018-03-08T22:05:36.068Z,1.77
2018-03-08T22:08:03.567Z,2.00
2018-03-08T22:10:31.062Z,1.70
2018-03-08T22:12:59.305Z,2.90
2018-03-08T22:15:26.807Z,2.13
2018-03-08T22:17:55.088Z,1.70
2018-03-08T22:20:23.318Z,1.97
2018-03-08T22:22:50.781Z,2.00
2018-03-08T22:25:18.278Z,1.80
2018-03-08T22:27:45.779Z,2.80
2018-03-08T22:30:13.287Z,2.10
2018-03-08T22:32:40.826Z,1.93
2018-03-08T22:35:08.333Z,1.63
2018-03-08T22:37:35.835Z,1.80
2018-03-08T22:40:03.614Z,1.90
2018-03-08T22:42:31.081Z,1.90
2018-03-08T22:44:58.547Z,1.83
2018-03-08T22:47:26.212Z,1.80
2018-03-08T22:49:53.675Z,1.87
2018-03-08T22:52:21.142Z,1.97
2018-03-08T22:54:48.668Z,2.00
2018-03-08T22:57:16.171Z,2.00
2018-03-08T22:59:43.657Z,2.10
2018-03-08T23:02:11.526Z,2.10
2018-03-08T23:04:38.994Z,2.17
2018-03-08T23:07:06.496Z,2.47
2018-03-08T23:09:33.995Z,1.97
2018-03-08T23:12:01.502Z,2.00
2018-03-08T23:14:29.776Z,2.20
2018-03-08T23:16:58.180Z,2.20
2018-03-08T23:19:25.640Z,2.10
2018-03-08T23:21:53.151Z,2.43
2018-03-08T23:24:20.672Z,2.30
2018-03-08T23:26:48.176Z,2.60
2018-03-08T23:29:15.641Z,1.80
2018-03-08T23:31:43.132Z,2.30
2018-03-08T23:34:11.396Z,2.17
2018-03-08T23:36:38.862Z,1.83
2018-03-08T23:39:06.341Z,2.43
2018-03-08T23:41:34.583Z,2.20
2018-03-08T23:44:02.050Z,2.10
2018-03-08T23:46:29.569Z,2.43
2018-03-08T23:48:57.079Z,2.33
2018-03-08T23:51:25.310Z,1.90
2018-03-08T23:53:53.053Z,2.30
2018-03-08T23:56:20.536Z,1.90
2018-03-08T23:58:48.001Z,2.17
